Time;durP1;ratioP1;P1;durP2;ratioP2;P2;SDS_P1;SDS_P2;PMS_P1;PMS_P2;Temp;Humidity;BMP_temperature;BMP_pressure;BME280_temperature;BME280_humidity;BME280_pressure;Samples;Min_cycle;Max_cycle;Signal;HPM_P1;HPM_P2
2022/07/09 00:01:08;;;;;;;2.37;2.17;;;;;;;26.46;48.79;101049.28;1733422;81;21066;-52
2022/07/09 00:03:36;;;;;;;3.80;2.10;;;;;;;26.38;48.71;101060.56;1734042;81;21083;-49
2022/07/09 00:06:03;;;;;;;2.92;2.12;;;;;;;26.30;48.79;101062.17;1735396;81;21019;-51
2022/07/09 00:08:30;;;;;;;3.05;2.10;;;;;;;26.28;49.06;101068.12;1706068;82;21137;-48
2022/07/09 00:10:57;;;;;;;2.37;2.10;;;;;;;26.26;49.23;101074.06;1740931;81;21499;-49
2022/07/09 00:13:25;;;;;;;2.30;2.10;;;;;;;26.25;49.42;101080.39;1746428;81;21137;-52
2022/07/09 00:15:55;;;;;;;2.55;2.30;;;;;;;26.22;49.42;101079.30;1740002;82;20994;-49
2022/07/09 00:18:22;;;;;;;2.30;2.10;;;;;;;26.19;49.33;101079.56;1746204;81;21026;-49
2022/07/09 00:20:48;;;;;;;2.77;2.20;;;;;;;26.14;49.50;101067.07;1743751;81;21507;-50
2022/07/09 00:23:15;;;;;;;2.98;2.40;;;;;;;26.10;49.44;101066.95;1740516;81;21495;-49
2022/07/09 00:25:42;;;;;;;3.62;2.00;;;;;;;26.09;49.49;101066.61;1741417;81;21019;-50
2022/07/09 00:28:09;;;;;;;4.22;2.37;;;;;;;26.04;49.48;101066.95;1733361;81;21069;-49
2022/07/09 00:30:36;;;;;;;3.25;2.58;;;;;;;26.00;50.05;101086.84;1743596;82;21529;-48
2022/07/09 00:33:03;;;;;;;2.77;2.42;;;;;;;25.99;49.94;101081.64;1741806;81;21026;-51
2022/07/09 00:35:30;;;;;;;2.37;2.17;;;;;;;26.01;49.69;101086.36;1741515;81;21002;-50
2022/07/09 00:37:58;;;;;;;2.40;2.20;;;;;;;26.01;49.69;101085.03;1741176;81;21015;-51
2022/07/09 00:40:24;;;;;;;2.75;2.55;;;;;;;26.00;49.46;101093.98;1734152;82;21011;-50
2022/07/09 00:42:51;;;;;;;2.25;2.08;;;;;;;25.97;49.46;101091.55;1744014;81;21026;-54
2022/07/09 00:45:18;;;;;;;2.20;2.05;;;;;;;25.93;49.67;101087.43;1705759;83;21022;-50
2022/07/09 00:47:45;;;;;;;3.40;2.20;;;;;;;25.89;49.65;101083.31;1698156;83;21017;-50
2022/07/09 00:50:12;;;;;;;3.98;2.60;;;;;;;25.85;49.90;101074.73;1706740;83;21049;-49
2022/07/09 00:52:39;;;;;;;3.20;2.30;;;;;;;25.83;49.71;101072.19;1706873;83;21026;-51
2022/07/09 00:55:07;;;;;;;2.50;2.30;;;;;;;25.81;49.66;101068.80;1749389;81;21042;-49
2022/07/09 00:57:34;;;;;;;4.45;2.40;;;;;;;25.79;49.76;101070.74;1750479;81;20983;-51
2022/07/09 01:00:02;;;;;;;2.75;2.30;;;;;;;25.77;49.51;101070.02;1744230;81;21038;-49
2022/07/09 01:02:29;;;;;;;2.25;2.05;;;;;;;25.74;49.75;101070.25;1742736;81;21476;-49
2022/07/09 01:04:56;;;;;;;2.83;2.25;;;;;;;25.74;49.92;101066.25;1741642;81;20998;-50
2022/07/09 01:07:23;;;;;;;2.25;2.05;;;;;;;25.75;49.90;101071.10;1741643;81;20983;-51
2022/07/09 01:09:50;;;;;;;3.00;2.15;;;;;;;25.75;49.82;101068.44;1746064;80;21042;-49
2022/07/09 01:12:17;;;;;;;2.47;2.10;;;;;;;25.77;49.92;101063.83;1746784;80;21075;-49
2022/07/09 01:14:44;;;;;;;4.22;2.35;;;;;;;25.80;49.92;101060.94;1748451;80;21057;-50
2022/07/09 01:17:11;;;;;;;2.05;1.92;;;;;;;25.79;50.05;101060.08;1749827;80;21054;-49
2022/07/09 01:19:38;;;;;;;2.20;2.00;;;;;;;25.76;49.86;101052.31;1749173;80;21018;-50
2022/07/09 01:22:06;;;;;;;2.30;2.10;;;;;;;25.74;50.21;101042.27;1746435;80;21065;-53
2022/07/09 01:24:34;;;;;;;3.00;2.40;;;;;;;25.71;49.96;101039.86;1752510;80;21023;-52
2022/07/09 01:27:01;;;;;;;2.60;2.20;;;;;;;25.69;49.96;101045.80;1748830;81;21034;-49
2022/07/09 01:29:28;;;;;;;2.45;2.15;;;;;;;25.67;50.06;101050.41;1711724;83;21010;-51
2022/07/09 01:31:55;;;;;;;2.40;2.20;;;;;;;25.65;50.34;101044.34;1701209;83;20994;-50
2022/07/09 01:34:22;;;;;;;2.35;2.15;;;;;;;25.65;50.31;101047.02;1714245;83;21092;-50
2022/07/09 01:36:48;;;;;;;2.37;2.17;;;;;;;25.60;50.55;101053.17;1711886;83;21001;-50
2022/07/09 01:39:15;;;;;;;2.67;2.00;;;;;;;25.56;50.52;101054.87;1712815;83;21026;-48
2022/07/09 01:41:42;;;;;;;2.67;2.45;;;;;;;25.53;50.86;101050.63;1711868;83;21069;-49
2022/07/09 01:44:09;;;;;;;2.33;2.12;;;;;;;25.55;50.75;101058.05;1714901;83;21586;-50
2022/07/09 01:46:36;;;;;;;5.72;2.30;;;;;;;25.55;50.75;101044.72;1701482;83;21025;-50
2022/07/09 01:49:04;;;;;;;4.17;2.62;;;;;;;25.57;50.96;101050.77;1707557;83;21507;-51
2022/07/09 01:51:34;;;;;;;3.05;2.10;;;;;;;25.57;50.96;101050.77;1714233;83;22098;-55
2022/07/09 01:54:01;;;;;;;3.05;2.40;;;;;;;25.56;51.10;101045.55;1713380;83;21002;-50
2022/07/09 01:56:28;;;;;;;2.52;2.25;;;;;;;25.56;51.56;101045.55;1711594;83;21037;-51
2022/07/09 01:58:54;;;;;;;2.87;1.90;;;;;;;25.56;51.78;101046.87;1712739;83;21029;-51
2022/07/09 02:01:21;;;;;;;2.10;1.90;;;;;;;25.54;51.62;101041.67;1714090;83;21392;-48
2022/07/09 02:03:48;;;;;;;2.27;1.90;;;;;;;25.53;51.87;101029.30;1713810;83;21065;-51
2022/07/09 02:06:15;;;;;;;2.22;2.02;;;;;;;25.50;51.86;101021.58;1713335;83;20974;-50
2022/07/09 02:08:43;;;;;;;2.22;2.05;;;;;;;25.50;51.63;101029.56;1690209;83;21093;-51
2022/07/09 02:11:10;;;;;;;2.98;2.20;;;;;;;25.49;51.92;101033.19;1701080;84;21003;-50
2022/07/09 02:13:38;;;;;;;2.33;1.90;;;;;;;25.48;51.69;101031.98;1701175;84;21053;-51
2022/07/09 02:16:08;;;;;;;2.25;1.98;;;;;;;25.48;51.69;101031.98;1704428;84;21005;-50
2022/07/09 02:18:35;;;;;;;2.35;2.15;;;;;;;25.46;51.77;101024.12;1698137;84;21061;-50
2022/07/09 02:21:04;;;;;;;2.35;2.02;;;;;;;25.44;51.79;101027.39;1698135;84;21026;-49
2022/07/09 02:23:31;;;;;;;2.10;1.90;;;;;;;25.41;51.87;101026.80;1698734;84;21010;-49
2022/07/09 02:25:58;;;;;;;3.80;1.85;;;;;;;25.40;51.73;101025.91;1697785;84;21562;-52
2022/07/09 02:28:25;;;;;;;2.85;2.08;;;;;;;25.37;51.81;101024.80;1699871;84;21332;-50
2022/07/09 02:30:53;;;;;;;1.92;1.80;;;;;;;25.36;51.77;101028.92;1701065;84;21062;-50
2022/07/09 02:33:20;;;;;;;2.85;2.20;;;;;;;25.36;51.77;101028.92;1700849;84;21071;-48
2022/07/09 02:35:47;;;;;;;2.30;2.10;;;;;;;25.36;51.66;101032.45;1698271;84;21042;-49
2022/07/09 02:38:15;;;;;;;2.58;2.30;;;;;;;25.37;51.47;101031.46;1700022;84;21030;-49
2022/07/09 02:40:43;;;;;;;4.33;2.20;;;;;;;25.35;51.80;101029.41;1699005;84;21031;-51
2022/07/09 02:43:09;;;;;;;2.08;1.90;;;;;;;25.35;51.89;101027.25;1702275;84;21471;-50
2022/07/09 02:45:36;;;;;;;2.27;2.08;;;;;;;25.36;51.64;101035.11;1685601;84;20998;-50
2022/07/09 02:48:04;;;;;;;2.33;1.90;;;;;;;25.34;51.61;101034.38;1735688;82;20995;-51
2022/07/09 02:50:31;;;;;;;3.15;2.05;;;;;;;25.29;51.58;101029.89;1736480;81;21031;-49
2022/07/09 02:52:57;;;;;;;3.83;2.58;;;;;;;25.30;52.09;101031.59;1700985;84;21003;-51
2022/07/09 02:55:24;;;;;;;2.58;2.00;;;;;;;25.25;52.06;101024.44;1734380;81;21001;-52
2022/07/09 02:57:51;;;;;;;2.27;2.08;;;;;;;25.23;52.07;101023.71;1733252;81;21077;-55
2022/07/09 03:00:19;;;;;;;1.90;1.80;;;;;;;25.21;52.19;101018.98;1733660;81;21051;-49
2022/07/09 03:02:46;;;;;;;2.60;2.08;;;;;;;25.21;52.17;101020.32;1733388;81;21038;-50
2022/07/09 03:05:13;;;;;;;3.75;1.90;;;;;;;25.14;52.35;101029.77;1733382;81;21031;-51
2022/07/09 03:07:42;;;;;;;4.22;2.10;;;;;;;25.10;52.43;101026.95;1735838;81;21475;-51
2022/07/09 03:10:09;;;;;;;3.75;2.12;;;;;;;25.10;52.43;101026.95;1745170;81;21058;-50
2022/07/09 03:12:38;;;;;;;2.58;2.05;;;;;;;25.11;52.38;101025.14;1708817;83;21053;-50
2022/07/09 03:15:07;;;;;;;2.47;2.05;;;;;;;25.12;52.22;101026.38;1705922;83;21502;-50
2022/07/09 03:17:35;;;;;;;2.10;2.00;;;;;;;25.11;52.27;101027.81;1718278;83;21569;-53
2022/07/09 03:20:02;;;;;;;2.67;1.95;;;;;;;25.11;51.99;101019.34;1712462;83;21106;-48
2022/07/09 03:22:29;;;;;;;2.77;2.20;;;;;;;25.10;51.92;101019.47;1712960;83;21026;-50
2022/07/09 03:24:56;;;;;;;2.27;2.00;;;;;;;25.09;52.02;101017.77;1714006;83;21510;-49
2022/07/09 03:27:23;;;;;;;2.17;1.98;;;;;;;25.08;52.03;101016.91;1713881;83;21541;-51
2022/07/09 03:29:52;;;;;;;2.17;2.08;;;;;;;25.08;52.03;101016.91;1711893;83;21013;-49
2022/07/09 03:32:18;;;;;;;2.62;2.42;;;;;;;25.08;52.42;101016.91;1711466;83;21057;-50
2022/07/09 03:34:45;;;;;;;3.00;2.20;;;;;;;25.09;52.45;101015.95;1710537;83;21049;-48
2022/07/09 03:37:12;;;;;;;2.30;2.10;;;;;;;25.06;52.37;101010.85;1711421;83;21081;-49
2022/07/09 03:39:39;;;;;;;4.22;2.22;;;;;;;25.06;52.25;101016.69;1710587;83;21544;-51
2022/07/09 03:42:06;;;;;;;2.92;2.22;;;;;;;25.06;52.45;101012.19;1713523;83;21077;-52
2022/07/09 03:44:34;;;;;;;2.65;2.33;;;;;;;25.06;52.79;101008.19;1713936;83;21033;-50
2022/07/09 03:47:00;;;;;;;4.22;2.52;;;;;;;25.15;52.99;101007.48;1712701;83;21045;-55
2022/07/09 03:49:27;;;;;;;4.85;2.10;;;;;;;25.29;53.18;101008.58;1711661;83;21081;-50
2022/07/09 03:51:54;;;;;;;3.00;1.98;;;;;;;25.48;52.77;101011.52;1712954;83;20989;-51
2022/07/09 03:54:20;;;;;;;3.35;2.12;;;;;;;25.67;53.04;101007.76;1709721;83;21513;-49
2022/07/09 03:56:47;;;;;;;3.25;2.58;;;;;;;25.86;52.45;101000.45;1716641;83;21041;-49
2022/07/09 03:59:14;;;;;;;4.58;2.12;;;;;;;26.04;52.00;101002.09;1712137;83;20998;-52
2022/07/09 04:01:40;;;;;;;2.72;2.20;;;;;;;26.19;51.54;101004.88;1711205;83;21077;-51
2022/07/09 04:04:07;;;;;;;3.25;2.35;;;;;;;26.34;51.19;101012.91;1710699;83;21025;-48
2022/07/09 04:06:34;;;;;;;2.50;2.27;;;;;;;26.43;50.54;101014.83;1711166;83;21021;-52
2022/07/09 04:09:04;;;;;;;2.87;2.20;;;;;;;26.47;50.41;101014.94;1705143;83;21073;-49
2022/07/09 04:11:31;;;;;;;2.40;2.20;;;;;;;26.41;50.39;101019.45;1699947;84;21045;-55
2022/07/09 04:14:00;;;;;;;2.75;2.55;;;;;;;26.29;50.44;101021.81;1736644;81;21523;-50
2022/07/09 04:16:27;;;;;;;2.30;2.15;;;;;;;26.13;50.45;101019.54;1696866;84;21038;-52
2022/07/09 04:18:55;;;;;;;3.35;2.65;;;;;;;26.01;50.72;101029.02;1736304;81;21007;-50
2022/07/09 04:21:22;;;;;;;3.25;2.70;;;;;;;25.90;50.94;101037.03;1733296;81;21007;-52
2022/07/09 04:23:50;;;;;;;4.08;2.40;;;;;;;25.79;51.00;101052.08;1732666;81;21011;-49
2022/07/09 04:26:18;;;;;;;2.70;2.50;;;;;;;25.70;51.24;101042.14;1729760;81;21015;-49
2022/07/09 04:28:46;;;;;;;2.98;2.37;;;;;;;25.67;51.58;101048.22;1735196;81;21476;-50
2022/07/09 04:31:15;;;;;;;4.65;2.70;;;;;;;25.64;51.54;101047.97;1697550;84;21567;-49
2022/07/09 04:33:44;;;;;;;2.85;2.65;;;;;;;25.56;51.86;101047.73;1699073;84;20994;-48
2022/07/09 04:36:13;;;;;;;3.60;2.30;;;;;;;25.54;51.95;101047.00;1701618;84;21021;-48
2022/07/09 04:38:39;;;;;;;2.25;2.12;;;;;;;25.53;52.14;101048.47;1736697;81;21018;-51
2022/07/09 04:41:06;;;;;;;2.62;2.37;;;;;;;25.50;52.18;101045.55;1698854;84;21030;-48
2022/07/09 04:43:33;;;;;;;3.85;2.40;;;;;;;25.51;52.13;101046.41;1698382;84;21026;-52
2022/07/09 04:46:00;;;;;;;2.60;2.40;;;;;;;25.50;52.52;101049.55;1697871;84;21030;-51
2022/07/09 04:48:26;;;;;;;2.55;2.35;;;;;;;25.50;51.92;101052.22;1694422;84;22181;-51
2022/07/09 04:50:53;;;;;;;2.92;2.62;;;;;;;25.51;52.04;101050.41;1698405;84;21026;-52
2022/07/09 04:53:20;;;;;;;2.47;2.27;;;;;;;25.53;52.10;101045.30;1735884;81;21116;-52
2022/07/09 04:55:46;;;;;;;2.85;2.50;;;;;;;25.57;51.81;101050.77;1731453;81;21007;-54
2022/07/09 04:58:13;;;;;;;2.77;2.55;;;;;;;25.61;51.85;101046.89;1739043;81;21491;-49
2022/07/09 05:00:41;;;;;;;2.62;2.40;;;;;;;25.65;51.68;101047.02;1735065;81;21007;-50
2022/07/09 05:03:09;;;;;;;2.87;2.55;;;;;;;25.70;51.98;101050.14;1733626;81;21022;-49
2022/07/09 05:05:36;;;;;;;3.60;2.25;;;;;;;25.78;52.03;101047.70;1733491;81;21000;-50
2022/07/09 05:08:04;;;;;;;3.08;2.55;;;;;;;25.88;51.89;101036.31;1733424;81;21026;-50
2022/07/09 05:10:32;;;;;;;7.00;2.50;;;;;;;25.97;51.82;101037.73;1745199;80;21101;-50
2022/07/09 05:13:01;;;;;;;2.33;2.12;;;;;;;26.10;51.61;101033.63;1747779;80;21487;-49
2022/07/09 05:15:30;;;;;;;3.75;2.17;;;;;;;26.23;50.99;101027.65;1749659;80;21062;-49
2022/07/09 05:17:58;;;;;;;3.30;2.33;;;;;;;26.40;50.77;101041.75;1745427;81;21006;-49
2022/07/09 05:20:26;;;;;;;2.52;2.33;;;;;;;26.58;49.89;101036.25;1749773;80;20983;-50
2022/07/09 05:22:53;;;;;;;4.92;2.40;;;;;;;26.74;49.61;101045.16;1748188;80;21035;-49
2022/07/09 05:25:20;;;;;;;2.60;2.40;;;;;;;26.84;49.00;101040.25;1746964;80;21530;-50
2022/07/09 05:27:48;;;;;;;4.30;2.50;;;;;;;26.93;48.78;101051.98;1746864;80;21003;-48
2022/07/09 05:30:15;;;;;;;3.50;2.40;;;;;;;26.95;48.57;101053.55;1746268;80;21544;-50
2022/07/09 05:32:42;;;;;;;2.80;2.52;;;;;;;26.93;48.30;101056.84;1747026;80;21065;-49
2022/07/09 05:35:10;;;;;;;3.70;2.40;;;;;;;26.95;48.53;101060.71;1748036;80;21026;-49
2022/07/09 05:37:42;;;;;;;2.83;2.40;;;;;;;27.00;48.42;101064.67;1714002;83;21030;-49
2022/07/09 05:40:11;;;;;;;3.65;2.30;;;;;;;27.05;48.26;101066.48;1714358;83;21010;-50
2022/07/09 05:42:39;;;;;;;3.83;2.40;;;;;;;27.10;48.10;101080.27;1712918;83;21010;-49
2022/07/09 05:45:09;;;;;;;2.87;2.62;;;;;;;27.14;47.75;101086.22;1711347;83;21005;-48
2022/07/09 05:47:37;;;;;;;2.20;2.10;;;;;;;27.16;47.61;101083.75;1710643;83;22115;-48
2022/07/09 05:50:05;;;;;;;4.90;2.20;;;;;;;27.18;47.86;101084.47;1717428;83;21466;-51
2022/07/09 05:52:33;;;;;;;2.83;2.17;;;;;;;27.21;47.79;101080.20;1712027;83;20986;-49
2022/07/09 05:54:59;;;;;;;2.60;2.40;;;;;;;27.22;47.71;101085.89;1711092;83;21018;-51
2022/07/09 05:57:26;;;;;;;2.60;2.33;;;;;;;27.23;47.42;101080.92;1710665;83;20998;-48
2022/07/09 05:59:53;;;;;;;2.40;2.20;;;;;;;27.25;47.77;101086.98;1711097;83;21061;-49
2022/07/09 06:02:20;;;;;;;3.08;2.58;;;;;;;27.29;47.78;101089.75;1710903;83;21033;-49
2022/07/09 06:04:48;;;;;;;3.17;2.22;;;;;;;27.36;47.57;101094.97;1713194;83;21530;-50
2022/07/09 06:07:15;;;;;;;3.85;2.45;;;;;;;27.47;47.51;101093.19;1713950;83;21046;-48
2022/07/09 06:09:43;;;;;;;2.15;2.05;;;;;;;27.61;47.00;101092.34;1707136;83;21069;-48
2022/07/09 06:12:11;;;;;;;2.72;2.47;;;;;;;27.76;46.75;101082.14;1700267;83;21026;-49
2022/07/09 06:14:37;;;;;;;4.05;2.50;;;;;;;27.87;46.61;101081.53;1700042;83;21072;-50
2022/07/09 06:17:05;;;;;;;2.60;2.40;;;;;;;27.94;46.00;101073.81;1708224;83;21006;-50
2022/07/09 06:19:34;;;;;;;2.87;2.33;;;;;;;28.00;45.71;101075.97;1708680;83;21061;-48
2022/07/09 06:22:01;;;;;;;2.90;2.45;;;;;;;28.06;45.27;101087.46;1744332;81;21505;-52
2022/07/09 06:24:28;;;;;;;2.85;2.33;;;;;;;28.13;45.31;101082.75;1741939;81;20974;-50
2022/07/09 06:26:56;;;;;;;2.50;2.30;;;;;;;28.28;44.97;101083.69;1741477;81;21504;-50
2022/07/09 06:29:23;;;;;;;4.03;2.25;;;;;;;28.35;44.64;101077.66;1705543;83;21490;-49
2022/07/09 06:31:50;;;;;;;2.40;2.20;;;;;;;28.47;44.51;101084.57;1705712;83;21057;-49
2022/07/09 06:34:18;;;;;;;3.17;2.45;;;;;;;28.59;44.21;101084.81;1705826;83;21073;-51
2022/07/09 06:36:46;;;;;;;2.42;2.22;;;;;;;28.68;43.80;101075.95;1708021;83;21323;-48
2022/07/09 06:42:07;;;;;;;2.22;2.05;;;;;;;28.78;43.50;101074.11;1708938;83;21026;-53
2022/07/09 06:44:35;;;;;;;2.62;2.00;;;;;;;28.78;43.34;101076.78;1744319;81;21062;-51
2022/07/09 06:47:04;;;;;;;3.08;1.90;;;;;;;28.78;43.38;101066.08;1744343;81;21038;-52
2022/07/09 06:49:31;;;;;;;2.65;2.17;;;;;;;28.80;43.85;101073.47;1713009;83;21053;-48
2022/07/09 06:51:58;;;;;;;2.70;2.10;;;;;;;28.80;43.77;101064.09;1707702;83;21522;-49
2022/07/09 06:54:25;;;;;;;2.27;2.08;;;;;;;28.79;43.40;101061.57;1707754;83;21089;-54
2022/07/09 06:56:52;;;;;;;3.52;2.40;;;;;;;28.76;43.03;101064.03;1708639;83;20990;-48
2022/07/09 06:59:21;;;;;;;2.17;2.00;;;;;;;28.71;43.36;101060.06;1743859;81;21003;-53
2022/07/09 07:01:48;;;;;;;2.52;2.22;;;;;;;28.65;43.53;101062.83;1742112;81;21018;-50
2022/07/09 07:04:15;;;;;;;4.83;2.20;;;;;;;28.62;43.83;101059.11;1705157;83;21034;-49
2022/07/09 07:06:42;;;;;;;2.45;2.25;;;;;;;28.58;43.76;101055.03;1705861;83;21427;-54
2022/07/09 07:09:09;;;;;;;2.37;2.17;;;;;;;28.56;43.92;101062.36;1705967;83;21048;-50
2022/07/09 07:11:36;;;;;;;3.58;2.10;;;;;;;28.56;43.84;101061.02;1705686;83;21081;-49
2022/07/09 07:14:03;;;;;;;2.20;2.10;;;;;;;28.52;43.98;101060.88;1744149;81;21046;-50
2022/07/09 07:16:30;;;;;;;2.45;2.25;;;;;;;28.53;43.92;101061.25;1742913;81;21452;-50
2022/07/09 07:18:56;;;;;;;1.98;1.87;;;;;;;28.53;43.90;101058.58;1742821;81;20998;-48
2022/07/09 07:21:23;;;;;;;2.35;2.15;;;;;;;28.57;43.40;101051.98;1743210;82;21062;-49
2022/07/09 07:23:50;;;;;;;3.00;2.25;;;;;;;28.63;43.84;101053.23;1744207;81;21519;-49
2022/07/09 07:26:17;;;;;;;2.40;2.20;;;;;;;28.67;43.73;101054.16;1708635;83;21010;-48
2022/07/09 07:28:44;;;;;;;2.40;2.20;;;;;;;28.74;43.51;101048.60;1742291;81;21007;-50
2022/07/09 07:31:10;;;;;;;2.30;2.10;;;;;;;28.80;43.43;101049.37;1740753;81;21007;-49
2022/07/09 07:33:38;;;;;;;2.95;2.10;;;;;;;28.89;43.72;101053.02;1741690;81;21058;-50
2022/07/09 07:36:06;;;;;;;2.50;2.30;;;;;;;28.96;43.73;101049.62;1734806;81;21066;-54
2022/07/09 07:38:35;;;;;;;2.33;2.12;;;;;;;29.03;43.65;101054.40;1707927;83;20986;-48
2022/07/09 07:41:02;;;;;;;2.15;2.00;;;;;;;29.09;43.75;101052.48;1634115;87;21102;-48
2022/07/09 07:43:29;;;;;;;2.47;2.20;;;;;;;29.17;43.61;101052.62;1674266;85;21040;-50
2022/07/09 07:45:55;;;;;;;2.37;2.17;;;;;;;29.24;43.62;101056.43;1662969;85;21047;-54
2022/07/09 07:48:22;;;;;;;2.30;2.10;;;;;;;29.32;43.19;101054.72;1670458;85;21027;-51
2022/07/09 07:50:49;;;;;;;2.60;2.15;;;;;;;29.40;43.25;101044.59;1672050;85;20985;-50
2022/07/09 07:53:16;;;;;;;2.47;2.10;;;;;;;29.47;43.08;101051.89;1672843;85;21008;-49
2022/07/09 07:55:43;;;;;;;2.40;2.08;;;;;;;29.54;42.97;101047.64;1671473;85;21028;-49
2022/07/09 07:58:10;;;;;;;3.17;2.22;;;;;;;29.61;42.84;101043.87;1670507;85;21019;-50
2022/07/09 08:00:37;;;;;;;2.25;2.05;;;;;;;29.67;42.96;101043.28;1671978;85;21037;-49
2022/07/09 08:03:04;;;;;;;2.25;2.08;;;;;;;29.74;43.14;101049.75;1672803;85;21575;-50
2022/07/09 08:05:31;;;;;;;2.33;2.20;;;;;;;29.80;42.72;101046.47;1672718;85;21504;-48
2022/07/09 08:07:58;;;;;;;3.35;2.05;;;;;;;29.88;42.85;101046.59;1671266;85;21004;-50
2022/07/09 08:10:26;;;;;;;3.37;2.15;;;;;;;29.95;42.81;101046.33;1665214;85;21047;-51
2022/07/09 08:12:54;;;;;;;2.40;2.20;;;;;;;30.02;42.72;101048.77;1672415;85;21535;-51
2022/07/09 08:15:21;;;;;;;2.52;1.65;;;;;;;30.06;42.27;101044.78;1674782;85;20995;-51
2022/07/09 08:17:48;;;;;;;2.50;2.30;;;;;;;30.07;42.05;101041.09;1675309;85;21063;-50
2022/07/09 08:20:15;;;;;;;2.20;2.00;;;;;;;30.08;42.37;101033.40;1671405;85;21016;-49
2022/07/09 08:22:42;;;;;;;3.58;2.83;;;;;;;30.11;41.97;101035.77;1674232;85;21064;-49
2022/07/09 08:25:09;;;;;;;2.00;1.90;;;;;;;30.14;41.98;101034.63;1672422;85;21539;-51
2022/07/09 08:27:36;;;;;;;2.05;1.95;;;;;;;30.13;41.76;101035.11;1666371;85;21027;-49
2022/07/09 08:30:04;;;;;;;2.15;2.05;;;;;;;30.13;41.64;101034.29;1675417;85;21048;-49
2022/07/09 08:32:31;;;;;;;2.70;2.50;;;;;;;30.13;42.08;101029.74;1675389;85;21023;-49
2022/07/09 08:34:58;;;;;;;2.10;1.90;;;;;;;30.12;41.97;101029.41;1671412;85;21029;-52
2022/07/09 08:37:26;;;;;;;2.60;2.17;;;;;;;30.11;42.17;101032.26;1691916;81;21046;-50
2022/07/09 08:39:53;;;;;;;2.55;2.35;;;;;;;30.08;41.78;101021.32;1746148;80;20995;-50
2022/07/09 08:42:19;;;;;;;2.35;2.05;;;;;;;30.06;41.45;101020.63;1747478;80;21042;-49
2022/07/09 08:44:47;;;;;;;2.20;2.08;;;;;;;30.07;41.26;101021.48;1713902;83;21028;-49
2022/07/09 08:47:17;;;;;;;2.55;2.35;;;;;;;30.05;41.98;101018.92;1709742;83;21526;-51
2022/07/09 08:49:44;;;;;;;2.20;2.10;;;;;;;30.04;42.46;101021.28;1710446;83;21021;-50
2022/07/09 08:52:10;;;;;;;2.05;1.95;;;;;;;30.04;42.72;101014.57;1704494;83;21006;-48
2022/07/09 08:54:38;;;;;;;2.27;2.08;;;;;;;30.03;42.72;101015.55;1714110;83;21033;-49
2022/07/09 08:57:05;;;;;;;2.20;2.00;;;;;;;30.04;42.40;101015.91;1711456;83;22491;-50
2022/07/09 08:59:33;;;;;;;2.20;2.10;;;;;;;30.02;42.67;101015.22;1712739;83;21010;-51
2022/07/09 09:02:09;;;;;;;2.40;2.10;;;;;;;30.03;42.96;101015.55;1713062;83;21577;-49
2022/07/09 09:04:39;;;;;;;2.60;2.10;;;;;;;30.05;42.66;101013.56;1713859;83;21064;-52
2022/07/09 09:07:19;;;;;;;2.30;2.10;;;;;;;30.05;42.64;101012.22;1713907;83;21454;-49
2022/07/09 09:09:46;;;;;;;2.33;2.22;;;;;;;30.05;42.70;101008.19;1713167;83;21061;-48
2022/07/09 09:12:13;;;;;;;2.75;2.20;;;;;;;30.07;42.24;101008.06;1700437;83;21136;-49
2022/07/09 09:14:49;;;;;;;2.08;1.98;;;;;;;30.08;42.32;100999.84;1706016;83;21541;-49
2022/07/09 09:17:16;;;;;;;2.45;2.20;;;;;;;30.12;41.53;101009.28;1733851;82;21482;-49
2022/07/09 09:19:43;;;;;;;2.55;2.12;;;;;;;30.13;41.82;101008.27;1744338;81;21013;-50
2022/07/09 09:22:10;;;;;;;2.83;2.30;;;;;;;30.15;42.35;100998.22;1743577;81;21019;-51
2022/07/09 09:24:37;;;;;;;2.55;2.35;;;;;;;30.16;41.89;100991.88;1727064;81;21038;-51
2022/07/09 09:27:05;;;;;;;2.77;1.92;;;;;;;30.04;42.17;100995.78;1744997;82;20979;-50
2022/07/09 09:29:33;;;;;;;2.10;2.00;;;;;;;30.01;42.55;101001.44;1744353;81;21470;-49
2022/07/09 09:32:10;;;;;;;2.52;2.05;;;;;;;30.01;42.77;100990.70;1711831;82;21082;-49
2022/07/09 09:34:40;;;;;;;1.98;1.87;;;;;;;30.03;43.12;100987.38;1748241;80;21022;-50
2022/07/09 09:37:08;;;;;;;2.67;2.45;;;;;;;30.06;42.92;100988.42;1706217;83;21018;-50
2022/07/09 09:39:36;;;;;;;2.27;2.07;;;;;;;30.08;42.83;100980.21;1740515;81;21479;-52
2022/07/09 09:42:04;;;;;;;4.03;2.47;;;;;;;30.11;43.04;100982.61;1745008;82;21277;-50
2022/07/09 09:44:39;;;;;;;2.25;2.05;;;;;;;30.17;43.04;100982.81;1708776;83;21011;-54
2022/07/09 09:47:10;;;;;;;2.92;2.50;;;;;;;30.22;42.67;100981.86;1708634;83;20990;-51
2022/07/09 09:49:42;;;;;;;2.27;1.70;;;;;;;30.30;42.66;100981.97;1743787;81;21011;-54
2022/07/09 09:52:10;;;;;;;2.62;2.25;;;;;;;30.41;42.65;100974.17;1741914;81;21515;-50
2022/07/09 09:54:42;;;;;;;5.10;2.00;;;;;;;30.57;42.93;100975.64;1741233;81;21001;-49
2022/07/09 09:57:10;;;;;;;;;;;;;;;30.78;42.87;100977.98;1693444;84;21559;-50
2022/07/09 09:59:39;;;;;;;3.47;2.27;;;;;;;30.94;42.61;100977.62;1690101;84;20116;-49
2022/07/09 10:02:06;;;;;;;3.98;2.50;;;;;;;31.11;42.77;100977.21;1690652;84;20979;-49
2022/07/09 10:04:33;;;;;;;2.33;2.10;;;;;;;31.24;42.32;100970.91;1691243;84;21575;-51
2022/07/09 10:07:00;;;;;;;2.37;2.05;;;;;;;31.37;40.53;100967.77;1683677;84;21008;-51
2022/07/09 10:09:27;;;;;;;2.67;2.47;;;;;;;31.51;39.97;100968.00;1693617;84;21023;-50
2022/07/09 10:11:54;;;;;;;2.65;2.45;;;;;;;31.67;40.92;100962.70;1689187;84;21091;-51
2022/07/09 10:14:31;;;;;;;4.53;2.95;;;;;;;31.82;40.13;100975.84;1689400;84;21087;-49
2022/07/09 10:17:13;;;;;;;4.05;2.98;;;;;;;31.95;40.65;100969.52;1687530;84;20991;-51
2022/07/09 10:19:54;;;;;;;2.70;2.50;;;;;;;32.08;39.91;100975.27;1692848;84;21148;-48
2022/07/09 10:25:10;;;;;;;2.80;2.50;;;;;;;32.24;38.14;100980.31;1670351;85;20323;-50
2022/07/09 10:27:46;;;;;;;2.60;2.40;;;;;;;32.32;39.22;100977.13;1628672;88;21517;-52
2022/07/09 10:30:33;;;;;;;3.72;2.80;;;;;;;32.40;38.81;100978.97;1628755;88;21531;-50
2022/07/09 10:33:11;;;;;;;4.50;2.52;;;;;;;32.48;39.75;100981.72;1628759;88;21076;-49
2022/07/09 10:35:45;;;;;;;3.35;2.98;;;;;;;32.54;39.22;100975.66;1628799;88;21593;-51
2022/07/09 10:38:14;;;;;;;4.40;2.90;;;;;;;32.59;39.26;100979.52;1629409;88;21064;-49
2022/07/09 10:40:56;;;;;;;7.05;3.47;;;;;;;32.66;39.11;100971.59;1618947;88;21043;-54
2022/07/09 10:43:47;;;;;;;2.52;2.33;;;;;;;32.67;39.31;100969.22;1570795;91;21010;-50
2022/07/09 10:46:14;;;;;;;6.80;2.65;;;;;;;32.66;38.00;100971.59;1574531;91;21116;-51
2022/07/09 10:48:44;;;;;;;4.33;2.80;;;;;;;32.69;37.39;100968.55;1573123;91;21530;-49
2022/07/09 10:51:18;;;;;;;5.83;2.80;;;;;;;32.73;38.46;100967.19;1559586;91;21077;-54
2022/07/09 10:53:46;;;;;;;3.33;2.75;;;;;;;32.77;38.85;100965.84;1589810;88;21015;-49
2022/07/09 10:56:21;;;;;;;3.70;2.67;;;;;;;32.82;38.71;100966.17;1613079;89;21028;-53
2022/07/09 10:58:49;;;;;;;2.87;2.58;;;;;;;32.86;37.46;100967.52;1610871;89;21039;-50
2022/07/09 11:01:21;;;;;;;2.95;2.62;;;;;;;32.90;37.93;100960.77;1612423;89;21575;-53
2022/07/09 11:03:51;;;;;;;3.65;2.75;;;;;;;32.95;38.59;100961.11;1615039;88;21074;-54
2022/07/09 11:06:18;;;;;;;5.45;2.80;;;;;;;32.99;37.23;100963.83;1611785;89;21105;-52
2022/07/09 11:08:45;;;;;;;2.47;2.27;;;;;;;33.04;37.39;100960.08;1612024;89;21075;-56
2022/07/09 11:11:25;;;;;;;4.40;2.85;;;;;;;33.08;36.84;100966.81;1618311;87;22764;-51
2022/07/09 11:13:54;;;;;;;3.12;2.58;;;;;;;33.12;37.46;100961.41;1613270;88;21641;-48
2022/07/09 11:16:26;;;;;;;3.15;2.87;;;;;;;33.15;37.81;100957.03;1619437;88;21078;-49
2022/07/09 11:18:53;;;;;;;4.70;2.92;;;;;;;33.18;37.08;100958.55;1619286;88;21094;-51
2022/07/09 11:21:24;;;;;;;4.20;2.95;;;;;;;33.21;36.44;100957.67;1618586;87;21035;-49
2022/07/09 11:23:51;;;;;;;5.28;2.70;;;;;;;33.27;36.84;100958.33;1614357;87;21099;-49
2022/07/09 11:26:19;;;;;;;3.27;2.83;;;;;;;33.30;36.13;100949.90;1613403;87;21074;-51
2022/07/09 11:28:47;;;;;;;2.87;2.47;;;;;;;33.33;35.97;100948.18;1611896;87;21578;-50
2022/07/09 11:31:14;;;;;;;2.65;2.42;;;;;;;33.37;37.10;100953.56;1603936;88;21108;-50
2022/07/09 11:36:49;;;;;;;5.65;2.87;;;;;;;33.38;37.20;100949.86;1610291;87;21578;-49